Terminal Aerodrome Forecast
Issued by NWS

Home | Current Version | Previous Version | Text Only | Print | Product List | Glossary On
Versions: 1 2 3 4 5 6 7 8 9 10 11 12 13
249
FTUS43 KLSX 212338
TAFUIN
TAF
KUIN 212338Z 2200/2224 17013G19KT P6SM BKN060
     FM220400 17013G21KT P6SM VCTS BKN060CB
     FM220600 17012KT 6SM SHRA VCTS OVC060CB
      TEMPO 2206/2208 3SM TSRA OVC030CB
     FM221100 29011KT 6SM -SHRA OVC015
     FM221500 33013KT P6SM OVC015
     FM221800 33013KT P6SM BKN035=

USA.gov is the U.S. government's official web portal to all federal, state and local government web resources and services.